Village, Virginia
Current Conditions -  °F | °C
As of 6:53 PM on Saturday 25 Oct 2014 (Local Time) from KNUI Reporting Station
NA  
Wind Chill: 64°   Ceiling: NA
Heat Index: 64°   Visibility: 10mi
Dew Point: 42°   Wind: 8mph
Humidity: 45%   Direction: 200°SSW
Pressure: 29.76"   Gusts: NA
Location:  37.95°N, 76.6°W
Report Text: KNUI 252253Z AUTO 20007KT 10SM 18/06 A2976 RMK AO2 SLP078 T01780056 $
Loading
Personal Weather Stations






























Interactive Weather Map
Tropical Storm Tracking
New forecast layout! Learn more

10-Day Weather Forecast

Advertisements
Track Severe Weather on mobile